sensor_id;sensor_type;location;lat;lon;timestamp;P1;durP1;ratioP1;P2;durP2;ratioP2
71759;SDS011;59919;48.112;16.280;2023-09-18T00:00:33;2.47;;;2.28;;
71759;SDS011;59919;48.112;16.280;2023-09-18T00:03:05;2.20;;;2.00;;
71759;SDS011;59919;48.112;16.280;2023-09-18T00:05:36;2.33;;;1.90;;
71759;SDS011;59919;48.112;16.280;2023-09-18T00:08:10;2.70;;;2.50;;
71759;SDS011;59919;48.112;16.280;2023-09-18T00:10:47;2.47;;;2.03;;
71759;SDS011;59919;48.112;16.280;2023-09-18T00:13:25;2.42;;;2.22;;
71759;SDS011;59919;48.112;16.280;2023-09-18T00:15:56;2.63;;;2.08;;
71759;SDS011;59919;48.112;16.280;2023-09-18T00:18:30;2.20;;;2.00;;
71759;SDS011;59919;48.112;16.280;2023-09-18T00:21:03;2.40;;;2.20;;
71759;SDS011;59919;48.112;16.280;2023-09-18T00:23:43;2.20;;;2.00;;
71759;SDS011;59919;48.112;16.280;2023-09-18T00:26:14;2.30;;;2.08;;
71759;SDS011;59919;48.112;16.280;2023-09-18T00:28:45;2.47;;;2.17;;
71759;SDS011;59919;48.112;16.280;2023-09-18T00:31:16;2.20;;;2.00;;
71759;SDS011;59919;48.112;16.280;2023-09-18T00:33:50;2.40;;;2.15;;
71759;SDS011;59919;48.112;16.280;2023-09-18T00:36:21;2.40;;;2.13;;
71759;SDS011;59919;48.112;16.280;2023-09-18T00:38:54;2.55;;;2.00;;
71759;SDS011;59919;48.112;16.280;2023-09-18T00:41:28;3.38;;;2.40;;
71759;SDS011;59919;48.112;16.280;2023-09-18T00:44:02;2.28;;;1.98;;
71759;SDS011;59919;48.112;16.280;2023-09-18T00:46:37;2.22;;;2.03;;
71759;SDS011;59919;48.112;16.280;2023-09-18T00:49:11;2.13;;;1.88;;
71759;SDS011;59919;48.112;16.280;2023-09-18T00:51:44;2.30;;;2.10;;
71759;SDS011;59919;48.112;16.280;2023-09-18T00:54:16;2.38;;;2.17;;
71759;SDS011;59919;48.112;16.280;2023-09-18T00:56:51;2.20;;;2.00;;
71759;SDS011;59919;48.112;16.280;2023-09-18T00:59:27;2.42;;;2.22;;
71759;SDS011;59919;48.112;16.280;2023-09-18T01:01:59;2.05;;;1.85;;
71759;SDS011;59919;48.112;16.280;2023-09-18T01:04:32;2.42;;;2.22;;
71759;SDS011;59919;48.112;16.280;2023-09-18T01:07:04;2.40;;;2.17;;
71759;SDS011;59919;48.112;16.280;2023-09-18T01:09:39;2.70;;;2.20;;
71759;SDS011;59919;48.112;16.280;2023-09-18T01:12:12;2.22;;;1.95;;
71759;SDS011;59919;48.112;16.280;2023-09-18T01:15:15;2.05;;;1.85;;
71759;SDS011;59919;48.112;16.280;2023-09-18T01:17:51;2.20;;;2.00;;
71759;SDS011;59919;48.112;16.280;2023-09-18T01:20:22;2.17;;;1.92;;
71759;SDS011;59919;48.112;16.280;2023-09-18T01:22:53;2.42;;;1.92;;
71759;SDS011;59919;48.112;16.280;2023-09-18T01:25:24;4.75;;;2.50;;
71759;SDS011;59919;48.112;16.280;2023-09-18T01:27:55;2.45;;;2.22;;
71759;SDS011;59919;48.112;16.280;2023-09-18T01:30:29;2.53;;;2.28;;
71759;SDS011;59919;48.112;16.280;2023-09-18T01:33:00;2.60;;;2.20;;
71759;SDS011;59919;48.112;16.280;2023-09-18T01:35:35;2.35;;;2.05;;
71759;SDS011;59919;48.112;16.280;2023-09-18T01:38:08;2.85;;;2.40;;
71759;SDS011;59919;48.112;16.280;2023-09-18T01:40:41;2.60;;;2.40;;
71759;SDS011;59919;48.112;16.280;2023-09-18T01:43:13;2.45;;;2.25;;
71759;SDS011;59919;48.112;16.280;2023-09-18T01:45:44;2.28;;;2.08;;
71759;SDS011;59919;48.112;16.280;2023-09-18T01:48:16;2.30;;;2.10;;
71759;SDS011;59919;48.112;16.280;2023-09-18T01:50:55;2.35;;;2.15;;
71759;SDS011;59919;48.112;16.280;2023-09-18T01:53:31;2.70;;;2.10;;
71759;SDS011;59919;48.112;16.280;2023-09-18T01:56:05;2.05;;;1.88;;
71759;SDS011;59919;48.112;16.280;2023-09-18T01:58:36;2.80;;;2.60;;
71759;SDS011;59919;48.112;16.280;2023-09-18T02:01:07;2.25;;;2.05;;
71759;SDS011;59919;48.112;16.280;2023-09-18T02:03:41;2.20;;;2.00;;
71759;SDS011;59919;48.112;16.280;2023-09-18T02:06:12;2.38;;;2.17;;
71759;SDS011;59919;48.112;16.280;2023-09-18T02:08:43;2.33;;;2.08;;
71759;SDS011;59919;48.112;16.280;2023-09-18T02:11:14;2.75;;;2.50;;
71759;SDS011;59919;48.112;16.280;2023-09-18T02:13:45;2.40;;;2.17;;
71759;SDS011;59919;48.112;16.280;2023-09-18T02:16:16;2.30;;;2.10;;
71759;SDS011;59919;48.112;16.280;2023-09-18T02:18:56;2.47;;;2.15;;
71759;SDS011;59919;48.112;16.280;2023-09-18T02:21:27;2.45;;;2.10;;
71759;SDS011;59919;48.112;16.280;2023-09-18T02:23:58;2.50;;;2.10;;
71759;SDS011;59919;48.112;16.280;2023-09-18T02:26:32;2.47;;;2.28;;
71759;SDS011;59919;48.112;16.280;2023-09-18T02:29:04;2.40;;;2.20;;
71759;SDS011;59919;48.112;16.280;2023-09-18T02:31:38;2.13;;;1.92;;
71759;SDS011;59919;48.112;16.280;2023-09-18T02:34:11;2.33;;;2.13;;
71759;SDS011;59919;48.112;16.280;2023-09-18T02:36:45;2.40;;;2.00;;
71759;SDS011;59919;48.112;16.280;2023-09-18T02:39:18;1.80;;;1.70;;
71759;SDS011;59919;48.112;16.280;2023-09-18T02:41:51;2.22;;;2.03;;
71759;SDS011;59919;48.112;16.280;2023-09-18T02:44:22;2.33;;;2.13;;
71759;SDS011;59919;48.112;16.280;2023-09-18T02:46:53;1.80;;;1.70;;
71759;SDS011;59919;48.112;16.280;2023-09-18T02:49:24;2.15;;;1.98;;
71759;SDS011;59919;48.112;16.280;2023-09-18T02:51:55;2.40;;;2.20;;
71759;SDS011;59919;48.112;16.280;2023-09-18T02:54:26;2.55;;;2.35;;
71759;SDS011;59919;48.112;16.280;2023-09-18T02:57:02;2.25;;;2.05;;
71759;SDS011;59919;48.112;16.280;2023-09-18T02:59:33;2.50;;;2.30;;
71759;SDS011;59919;48.112;16.280;2023-09-18T03:02:04;2.50;;;2.30;;
71759;SDS011;59919;48.112;16.280;2023-09-18T03:04:38;2.20;;;2.00;;
71759;SDS011;59919;48.112;16.280;2023-09-18T03:07:12;2.15;;;1.95;;
71759;SDS011;59919;48.112;16.280;2023-09-18T03:09:44;2.50;;;2.30;;
71759;SDS011;59919;48.112;16.280;2023-09-18T03:12:15;2.70;;;2.50;;
71759;SDS011;59919;48.112;16.280;2023-09-18T03:14:49;2.42;;;2.00;;
71759;SDS011;59919;48.112;16.280;2023-09-18T03:17:22;2.28;;;2.08;;
71759;SDS011;59919;48.112;16.280;2023-09-18T03:19:53;2.20;;;1.90;;
71759;SDS011;59919;48.112;16.280;2023-09-18T03:22:27;1.92;;;1.83;;
71759;SDS011;59919;48.112;16.280;2023-09-18T03:24:58;2.50;;;2.13;;
71759;SDS011;59919;48.112;16.280;2023-09-18T03:27:29;2.33;;;2.13;;
71759;SDS011;59919;48.112;16.280;2023-09-18T03:30:02;2.17;;;1.98;;
71759;SDS011;59919;48.112;16.280;2023-09-18T03:32:33;2.20;;;2.00;;
71759;SDS011;59919;48.112;16.280;2023-09-18T03:35:04;2.20;;;2.00;;
71759;SDS011;59919;48.112;16.280;2023-09-18T03:37:35;2.05;;;1.88;;
71759;SDS011;59919;48.112;16.280;2023-09-18T03:40:07;2.50;;;2.30;;
71759;SDS011;59919;48.112;16.280;2023-09-18T03:42:39;2.33;;;2.13;;
71759;SDS011;59919;48.112;16.280;2023-09-18T03:45:11;2.35;;;2.15;;
71759;SDS011;59919;48.112;16.280;2023-09-18T03:47:42;2.42;;;2.22;;
71759;SDS011;59919;48.112;16.280;2023-09-18T03:50:13;2.20;;;2.00;;
71759;SDS011;59919;48.112;16.280;2023-09-18T03:52:44;2.40;;;2.20;;
71759;SDS011;59919;48.112;16.280;2023-09-18T03:55:15;2.22;;;2.03;;
71759;SDS011;59919;48.112;16.280;2023-09-18T03:57:49;3.05;;;2.17;;
71759;SDS011;59919;48.112;16.280;2023-09-18T04:00:21;2.58;;;2.20;;
71759;SDS011;59919;48.112;16.280;2023-09-18T04:02:52;2.33;;;2.00;;
71759;SDS011;59919;48.112;16.280;2023-09-18T04:05:23;2.80;;;2.30;;
71759;SDS011;59919;48.112;16.280;2023-09-18T04:07:54;3.40;;;2.53;;
71759;SDS011;59919;48.112;16.280;2023-09-18T04:10:25;2.85;;;2.10;;
71759;SDS011;59919;48.112;16.280;2023-09-18T04:12:57;2.50;;;2.30;;
71759;SDS011;59919;48.112;16.280;2023-09-18T04:15:28;2.60;;;2.40;;
71759;SDS011;59919;48.112;16.280;2023-09-18T04:18:01;2.55;;;2.35;;
71759;SDS011;59919;48.112;16.280;2023-09-18T04:20:32;2.58;;;2.10;;
71759;SDS011;59919;48.112;16.280;2023-09-18T04:23:23;2.67;;;2.17;;
71759;SDS011;59919;48.112;16.280;2023-09-18T04:25:55;2.40;;;2.20;;
71759;SDS011;59919;48.112;16.280;2023-09-18T04:28:28;3.42;;;2.50;;
71759;SDS011;59919;48.112;16.280;2023-09-18T04:30:59;2.15;;;1.95;;
71759;SDS011;59919;48.112;16.280;2023-09-18T04:33:30;2.40;;;2.15;;
71759;SDS011;59919;48.112;16.280;2023-09-18T04:36:01;2.78;;;2.55;;
71759;SDS011;59919;48.112;16.280;2023-09-18T04:38:32;2.58;;;2.38;;
71759;SDS011;59919;48.112;16.280;2023-09-18T04:41:06;2.47;;;2.28;;
71759;SDS011;59919;48.112;16.280;2023-09-18T04:43:42;2.20;;;2.00;;
71759;SDS011;59919;48.112;16.280;2023-09-18T04:46:16;3.20;;;2.38;;
71759;SDS011;59919;48.112;16.280;2023-09-18T04:48:50;2.50;;;2.20;;
71759;SDS011;59919;48.112;16.280;2023-09-18T04:51:22;3.05;;;2.55;;
71759;SDS011;59919;48.112;16.280;2023-09-18T04:53:53;2.33;;;2.13;;
71759;SDS011;59919;48.112;16.280;2023-09-18T04:56:25;3.40;;;2.70;;
71759;SDS011;59919;48.112;16.280;2023-09-18T04:58:56;2.55;;;2.35;;
71759;SDS011;59919;48.112;16.280;2023-09-18T05:01:28;2.42;;;2.22;;
71759;SDS011;59919;48.112;16.280;2023-09-18T05:04:02;2.28;;;2.05;;
71759;SDS011;59919;48.112;16.280;2023-09-18T05:06:36;2.70;;;2.30;;
71759;SDS011;59919;48.112;16.280;2023-09-18T05:09:09;2.33;;;2.13;;
71759;SDS011;59919;48.112;16.280;2023-09-18T05:11:40;2.30;;;2.10;;
71759;SDS011;59919;48.112;16.280;2023-09-18T05:14:12;2.50;;;2.30;;
71759;SDS011;59919;48.112;16.280;2023-09-18T05:16:45;2.35;;;2.15;;
71759;SDS011;59919;48.112;16.280;2023-09-18T05:19:16;2.38;;;2.15;;
71759;SDS011;59919;48.112;16.280;2023-09-18T05:21:47;2.53;;;2.28;;
71759;SDS011;59919;48.112;16.280;2023-09-18T05:24:21;2.42;;;2.22;;
71759;SDS011;59919;48.112;16.280;2023-09-18T05:26:57;2.53;;;2.33;;
71759;SDS011;59919;48.112;16.280;2023-09-18T05:29:28;2.85;;;2.40;;
71759;SDS011;59919;48.112;16.280;2023-09-18T05:31:59;2.63;;;2.30;;
71759;SDS011;59919;48.112;16.280;2023-09-18T05:34:30;2.35;;;2.00;;
71759;SDS011;59919;48.112;16.280;2023-09-18T05:37:02;2.60;;;2.40;;
71759;SDS011;59919;48.112;16.280;2023-09-18T05:39:39;2.40;;;2.20;;
71759;SDS011;59919;48.112;16.280;2023-09-18T05:42:11;2.35;;;2.15;;
71759;SDS011;59919;48.112;16.280;2023-09-18T05:44:42;2.45;;;2.25;;
71759;SDS011;59919;48.112;16.280;2023-09-18T05:47:15;2.47;;;2.28;;
71759;SDS011;59919;48.112;16.280;2023-09-18T05:49:46;2.15;;;1.95;;
71759;SDS011;59919;48.112;16.280;2023-09-18T05:52:17;2.20;;;2.00;;
71759;SDS011;59919;48.112;16.280;2023-09-18T05:54:49;2.65;;;2.45;;
71759;SDS011;59919;48.112;16.280;2023-09-18T05:57:23;2.15;;;1.95;;
71759;SDS011;59919;48.112;16.280;2023-09-18T05:59:55;2.92;;;2.30;;
71759;SDS011;59919;48.112;16.280;2023-09-18T06:02:26;2.30;;;2.10;;
71759;SDS011;59919;48.112;16.280;2023-09-18T06:05:01;3.72;;;2.65;;
71759;SDS011;59919;48.112;16.280;2023-09-18T06:07:35;2.53;;;2.13;;
71759;SDS011;59919;48.112;16.280;2023-09-18T06:10:07;2.55;;;2.20;;
71759;SDS011;59919;48.112;16.280;2023-09-18T06:12:40;2.80;;;2.50;;
71759;SDS011;59919;48.112;16.280;2023-09-18T06:15:12;2.50;;;2.30;;
71759;SDS011;59919;48.112;16.280;2023-09-18T06:17:44;2.10;;;1.90;;
71759;SDS011;59919;48.112;16.280;2023-09-18T06:20:15;2.92;;;2.25;;
71759;SDS011;59919;48.112;16.280;2023-09-18T06:22:49;2.22;;;2.03;;
71759;SDS011;59919;48.112;16.280;2023-09-18T06:25:20;2.20;;;2.00;;
71759;SDS011;59919;48.112;16.280;2023-09-18T06:27:51;2.25;;;2.03;;
71759;SDS011;59919;48.112;16.280;2023-09-18T06:30:22;2.10;;;1.80;;
71759;SDS011;59919;48.112;16.280;2023-09-18T06:32:53;2.78;;;2.20;;
71759;SDS011;59919;48.112;16.280;2023-09-18T06:35:27;2.15;;;1.95;;
71759;SDS011;59919;48.112;16.280;2023-09-18T06:38:00;2.03;;;1.83;;
71759;SDS011;59919;48.112;16.280;2023-09-18T06:40:35;6.75;;;2.22;;
71759;SDS011;59919;48.112;16.280;2023-09-18T06:43:06;2.95;;;2.10;;
71759;SDS011;59919;48.112;16.280;2023-09-18T06:45:37;2.28;;;2.08;;
71759;SDS011;59919;48.112;16.280;2023-09-18T06:48:09;2.15;;;1.90;;
71759;SDS011;59919;48.112;16.280;2023-09-18T06:50:43;2.20;;;2.00;;
71759;SDS011;59919;48.112;16.280;2023-09-18T06:53:14;3.58;;;1.70;;
71759;SDS011;59919;48.112;16.280;2023-09-18T06:55:45;2.97;;;2.15;;
71759;SDS011;59919;48.112;16.280;2023-09-18T06:58:16;2.17;;;1.98;;
71759;SDS011;59919;48.112;16.280;2023-09-18T07:00:50;2.30;;;2.10;;
71759;SDS011;59919;48.112;16.280;2023-09-18T07:03:21;3.28;;;2.00;;
71759;SDS011;59919;48.112;16.280;2023-09-18T07:05:55;4.22;;;2.28;;
71759;SDS011;59919;48.112;16.280;2023-09-18T07:08:26;2.90;;;2.28;;
71759;SDS011;59919;48.112;16.280;2023-09-18T07:10:58;2.25;;;2.05;;
71759;SDS011;59919;48.112;16.280;2023-09-18T07:13:35;2.65;;;1.98;;
71759;SDS011;59919;48.112;16.280;2023-09-18T07:16:09;3.20;;;1.92;;
71759;SDS011;59919;48.112;16.280;2023-09-18T07:18:44;3.28;;;2.00;;
71759;SDS011;59919;48.112;16.280;2023-09-18T07:21:15;2.40;;;2.05;;
71759;SDS011;59919;48.112;16.280;2023-09-18T07:23:50;3.92;;;2.08;;
71759;SDS011;59919;48.112;16.280;2023-09-18T07:26:22;2.50;;;1.90;;
71759;SDS011;59919;48.112;16.280;2023-09-18T07:28:53;2.05;;;1.85;;
71759;SDS011;59919;48.112;16.280;2023-09-18T07:31:24;2.20;;;2.00;;
71759;SDS011;59919;48.112;16.280;2023-09-18T07:33:55;3.13;;;2.08;;
71759;SDS011;59919;48.112;16.280;2023-09-18T07:36:26;2.17;;;1.75;;
71759;SDS011;59919;48.112;16.280;2023-09-18T07:38:57;2.15;;;1.98;;
71759;SDS011;59919;48.112;16.280;2023-09-18T07:41:29;3.22;;;2.00;;
71759;SDS011;59919;48.112;16.280;2023-09-18T07:44:00;2.47;;;2.05;;
71759;SDS011;59919;48.112;16.280;2023-09-18T07:46:31;2.42;;;2.20;;
71759;SDS011;59919;48.112;16.280;2023-09-18T07:49:04;3.60;;;2.15;;
71759;SDS011;59919;48.112;16.280;2023-09-18T07:51:38;5.30;;;2.50;;
71759;SDS011;59919;48.112;16.280;2023-09-18T07:54:13;2.83;;;2.30;;
71759;SDS011;59919;48.112;16.280;2023-09-18T07:56:46;2.78;;;2.33;;
71759;SDS011;59919;48.112;16.280;2023-09-18T07:59:23;3.85;;;2.30;;
71759;SDS011;59919;48.112;16.280;2023-09-18T08:01:55;4.10;;;2.58;;
71759;SDS011;59919;48.112;16.280;2023-09-18T08:04:26;4.03;;;2.40;;
71759;SDS011;59919;48.112;16.280;2023-09-18T08:06:57;2.78;;;2.42;;
71759;SDS011;59919;48.112;16.280;2023-09-18T08:09:28;5.50;;;2.72;;
71759;SDS011;59919;48.112;16.280;2023-09-18T08:12:00;4.22;;;2.20;;
71759;SDS011;59919;48.112;16.280;2023-09-18T08:14:33;2.55;;;2.35;;
71759;SDS011;59919;48.112;16.280;2023-09-18T08:17:06;2.65;;;2.38;;
71759;SDS011;59919;48.112;16.280;2023-09-18T08:19:38;2.88;;;2.45;;
71759;SDS011;59919;48.112;16.280;2023-09-18T08:22:10;3.17;;;2.50;;
71759;SDS011;59919;48.112;16.280;2023-09-18T08:24:46;2.35;;;2.05;;
71759;SDS011;59919;48.112;16.280;2023-09-18T08:27:18;3.45;;;2.60;;
71759;SDS011;59919;48.112;16.280;2023-09-18T08:29:52;3.35;;;2.60;;
71759;SDS011;59919;48.112;16.280;2023-09-18T08:32:23;6.57;;;2.40;;
71759;SDS011;59919;48.112;16.280;2023-09-18T08:34:54;3.47;;;2.38;;
71759;SDS011;59919;48.112;16.280;2023-09-18T08:37:28;3.05;;;2.47;;
71759;SDS011;59919;48.112;16.280;2023-09-18T08:40:01;2.53;;;2.33;;
71759;SDS011;59919;48.112;16.280;2023-09-18T08:42:46;5.13;;;2.70;;
71759;SDS011;59919;48.112;16.280;2023-09-18T08:45:22;2.80;;;2.50;;
71759;SDS011;59919;48.112;16.280;2023-09-18T08:47:58;2.70;;;2.50;;
71759;SDS011;59919;48.112;16.280;2023-09-18T08:50:29;4.20;;;2.60;;
71759;SDS011;59919;48.112;16.280;2023-09-18T08:53:01;2.53;;;2.33;;
71759;SDS011;59919;48.112;16.280;2023-09-18T08:55:36;2.58;;;2.38;;
71759;SDS011;59919;48.112;16.280;2023-09-18T08:58:07;3.28;;;2.63;;
71759;SDS011;59919;48.112;16.280;2023-09-18T09:00:39;4.65;;;2.60;;
71759;SDS011;59919;48.112;16.280;2023-09-18T09:03:10;3.90;;;2.80;;
71759;SDS011;59919;48.112;16.280;2023-09-18T09:05:41;3.28;;;2.97;;
71759;SDS011;59919;48.112;16.280;2023-09-18T09:08:12;4.35;;;2.67;;
71759;SDS011;59919;48.112;16.280;2023-09-18T09:10:44;3.00;;;2.50;;
71759;SDS011;59919;48.112;16.280;2023-09-18T09:13:15;3.83;;;2.78;;
71759;SDS011;59919;48.112;16.280;2023-09-18T09:15:46;3.97;;;2.70;;
71759;SDS011;59919;48.112;16.280;2023-09-18T09:18:25;2.90;;;2.60;;
71759;SDS011;59919;48.112;16.280;2023-09-18T09:20:58;2.80;;;2.60;;
71759;SDS011;59919;48.112;16.280;2023-09-18T09:23:47;3.25;;;2.88;;
71759;SDS011;59919;48.112;16.280;2023-09-18T09:26:22;3.83;;;3.13;;
71759;SDS011;59919;48.112;16.280;2023-09-18T09:28:54;3.25;;;2.75;;
71759;SDS011;59919;48.112;16.280;2023-09-18T09:31:28;4.55;;;2.90;;
71759;SDS011;59919;48.112;16.280;2023-09-18T09:34:02;3.60;;;3.20;;
71759;SDS011;59919;48.112;16.280;2023-09-18T09:36:35;4.25;;;3.05;;
71759;SDS011;59919;48.112;16.280;2023-09-18T09:39:10;4.38;;;3.10;;
71759;SDS011;59919;48.112;16.280;2023-09-18T09:41:44;3.45;;;3.15;;
71759;SDS011;59919;48.112;16.280;2023-09-18T09:44:16;3.65;;;3.33;;
71759;SDS011;59919;48.112;16.280;2023-09-18T09:46:48;3.17;;;2.97;;
71759;SDS011;59919;48.112;16.280;2023-09-18T09:49:23;3.35;;;3.05;;
71759;SDS011;59919;48.112;16.280;2023-09-18T09:51:55;3.47;;;2.90;;
71759;SDS011;59919;48.112;16.280;2023-09-18T09:54:32;3.20;;;2.90;;
71759;SDS011;59919;48.112;16.280;2023-09-18T09:57:12;3.03;;;2.72;;
71759;SDS011;59919;48.112;16.280;2023-09-18T09:59:43;4.07;;;2.92;;
71759;SDS011;59919;48.112;16.280;2023-09-18T10:02:15;5.38;;;3.20;;
71759;SDS011;59919;48.112;16.280;2023-09-18T10:04:53;4.70;;;3.00;;
71759;SDS011;59919;48.112;16.280;2023-09-18T10:07:24;3.85;;;3.45;;
71759;SDS011;59919;48.112;16.280;2023-09-18T10:09:57;3.42;;;2.90;;
71759;SDS011;59919;48.112;16.280;2023-09-18T10:12:29;6.30;;;3.25;;
71759;SDS011;59919;48.112;16.280;2023-09-18T10:15:04;3.90;;;3.17;;
71759;SDS011;59919;48.112;16.280;2023-09-18T10:17:41;3.73;;;3.30;;
71759;SDS011;59919;48.112;16.280;2023-09-18T10:20:16;4.95;;;2.97;;
71759;SDS011;59919;48.112;16.280;2023-09-18T10:22:52;3.28;;;2.97;;
71759;SDS011;59919;48.112;16.280;2023-09-18T10:25:28;3.67;;;3.20;;
71759;SDS011;59919;48.112;16.280;2023-09-18T10:28:02;4.53;;;3.45;;
71759;SDS011;59919;48.112;16.280;2023-09-18T10:30:33;3.95;;;3.35;;
71759;SDS011;59919;48.112;16.280;2023-09-18T10:33:10;3.83;;;3.40;;
71759;SDS011;59919;48.112;16.280;2023-09-18T10:35:42;4.07;;;3.00;;
71759;SDS011;59919;48.112;16.280;2023-09-18T10:38:14;4.07;;;3.10;;
71759;SDS011;59919;48.112;16.280;2023-09-18T10:40:47;4.05;;;3.30;;
71759;SDS011;59919;48.112;16.280;2023-09-18T10:43:20;3.30;;;2.95;;
71759;SDS011;59919;48.112;16.280;2023-09-18T10:45:51;4.50;;;2.83;;
71759;SDS011;59919;48.112;16.280;2023-09-18T10:48:26;3.97;;;3.42;;
71759;SDS011;59919;48.112;16.280;2023-09-18T10:50:58;3.28;;;2.97;;
71759;SDS011;59919;48.112;16.280;2023-09-18T10:53:36;3.47;;;2.95;;
71759;SDS011;59919;48.112;16.280;2023-09-18T10:56:10;4.00;;;2.97;;
71759;SDS011;59919;48.112;16.280;2023-09-18T10:58:57;5.10;;;3.20;;
71759;SDS011;59919;48.112;16.280;2023-09-18T11:01:30;3.55;;;3.25;;
71759;SDS011;59919;48.112;16.280;2023-09-18T11:04:07;3.35;;;3.05;;
71759;SDS011;59919;48.112;16.280;2023-09-18T11:09:27;3.38;;;2.90;;
71759;SDS011;59919;48.112;16.280;2023-09-18T11:12:03;3.00;;;2.70;;
71759;SDS011;59919;48.112;16.280;2023-09-18T11:17:32;4.03;;;3.08;;
71759;SDS011;59919;48.112;16.280;2023-09-18T11:20:21;3.53;;;2.78;;
71759;SDS011;59919;48.112;16.280;2023-09-18T11:22:56;3.67;;;3.15;;
71759;SDS011;59919;48.112;16.280;2023-09-18T11:28:16;3.83;;;2.65;;
71759;SDS011;59919;48.112;16.280;2023-09-18T11:30:55;4.97;;;3.08;;
71759;SDS011;59919;48.112;16.280;2023-09-18T11:36:08;3.38;;;2.75;;
71759;SDS011;59919;48.112;16.280;2023-09-18T11:38:55;3.58;;;2.85;;
71759;SDS011;59919;48.112;16.280;2023-09-18T11:41:28;2.65;;;2.45;;
71759;SDS011;59919;48.112;16.280;2023-09-18T11:46:38;3.25;;;2.95;;
71759;SDS011;59919;48.112;16.280;2023-09-18T11:49:12;3.40;;;3.10;;
71759;SDS011;59919;48.112;16.280;2023-09-18T11:51:43;3.70;;;3.00;;
71759;SDS011;59919;48.112;16.280;2023-09-18T11:54:17;3.00;;;2.70;;
71759;SDS011;59919;48.112;16.280;2023-09-18T11:56:48;5.22;;;2.80;;
71759;SDS011;59919;48.112;16.280;2023-09-18T11:59:32;4.13;;;3.00;;
71759;SDS011;59919;48.112;16.280;2023-09-18T12:02:08;4.05;;;2.92;;
71759;SDS011;59919;48.112;16.280;2023-09-18T12:04:40;2.70;;;2.50;;
71759;SDS011;59919;48.112;16.280;2023-09-18T12:07:11;6.65;;;3.10;;
71759;SDS011;59919;48.112;16.280;2023-09-18T12:09:43;4.00;;;3.33;;
71759;SDS011;59919;48.112;16.280;2023-09-18T12:12:15;3.80;;;3.28;;
71759;SDS011;59919;48.112;16.280;2023-09-18T12:14:48;3.60;;;2.97;;
71759;SDS011;59919;48.112;16.280;2023-09-18T12:17:22;3.75;;;3.15;;
71759;SDS011;59919;48.112;16.280;2023-09-18T12:19:54;3.55;;;3.00;;
71759;SDS011;59919;48.112;16.280;2023-09-18T12:22:27;4.10;;;3.22;;
71759;SDS011;59919;48.112;16.280;2023-09-18T12:25:14;3.30;;;3.00;;
71759;SDS011;59919;48.112;16.280;2023-09-18T12:27:51;4.18;;;3.38;;
71759;SDS011;59919;48.112;16.280;2023-09-18T12:30:28;3.90;;;3.20;;
71759;SDS011;59919;48.112;16.280;2023-09-18T12:32:59;3.60;;;3.10;;
71759;SDS011;59919;48.112;16.280;2023-09-18T12:35:34;3.42;;;3.08;;
71759;SDS011;59919;48.112;16.280;2023-09-18T12:38:13;3.15;;;2.85;;
71759;SDS011;59919;48.112;16.280;2023-09-18T12:40:45;6.55;;;3.72;;
71759;SDS011;59919;48.112;16.280;2023-09-18T12:43:17;3.70;;;2.92;;
71759;SDS011;59919;48.112;16.280;2023-09-18T12:45:49;2.80;;;2.60;;
71759;SDS011;59919;48.112;16.280;2023-09-18T12:48:21;4.32;;;3.10;;
71759;SDS011;59919;48.112;16.280;2023-09-18T12:50:52;5.28;;;3.10;;
71759;SDS011;59919;48.112;16.280;2023-09-18T12:53:24;4.53;;;3.40;;
71759;SDS011;59919;48.112;16.280;2023-09-18T12:55:55;4.88;;;3.25;;
71759;SDS011;59919;48.112;16.280;2023-09-18T12:58:36;3.85;;;2.85;;
71759;SDS011;59919;48.112;16.280;2023-09-18T13:01:08;4.50;;;3.20;;
71759;SDS011;59919;48.112;16.280;2023-09-18T13:03:43;3.42;;;3.13;;
71759;SDS011;59919;48.112;16.280;2023-09-18T13:06:16;4.10;;;3.70;;
71759;SDS011;59919;48.112;16.280;2023-09-18T13:08:48;3.80;;;3.50;;
71759;SDS011;59919;48.112;16.280;2023-09-18T13:11:20;4.43;;;3.33;;
71759;SDS011;59919;48.112;16.280;2023-09-18T13:13:57;3.92;;;3.50;;
71759;SDS011;59919;48.112;16.280;2023-09-18T13:16:29;5.30;;;3.40;;
71759;SDS011;59919;48.112;16.280;2023-09-18T13:19:03;3.80;;;3.28;;
71759;SDS011;59919;48.112;16.280;2023-09-18T13:21:35;5.57;;;3.47;;
71759;SDS011;59919;48.112;16.280;2023-09-18T13:24:07;4.57;;;3.60;;
71759;SDS011;59919;48.112;16.280;2023-09-18T13:26:38;4.25;;;3.30;;
71759;SDS011;59919;48.112;16.280;2023-09-18T13:29:09;4.55;;;3.53;;
71759;SDS011;59919;48.112;16.280;2023-09-18T13:31:40;3.40;;;3.10;;
71759;SDS011;59919;48.112;16.280;2023-09-18T13:34:11;4.78;;;3.20;;
71759;SDS011;59919;48.112;16.280;2023-09-18T13:36:48;3.63;;;3.30;;
71759;SDS011;59919;48.112;16.280;2023-09-18T13:39:19;4.65;;;3.38;;
71759;SDS011;59919;48.112;16.280;2023-09-18T13:41:51;5.22;;;3.70;;
71759;SDS011;59919;48.112;16.280;2023-09-18T13:44:22;3.83;;;3.20;;
71759;SDS011;59919;48.112;16.280;2023-09-18T13:46:55;4.05;;;3.30;;
71759;SDS011;59919;48.112;16.280;2023-09-18T13:49:29;4.75;;;3.67;;
71759;SDS011;59919;48.112;16.280;2023-09-18T13:52:00;4.28;;;3.70;;
71759;SDS011;59919;48.112;16.280;2023-09-18T13:54:31;3.95;;;3.40;;
71759;SDS011;59919;48.112;16.280;2023-09-18T13:57:02;3.95;;;3.55;;
71759;SDS011;59919;48.112;16.280;2023-09-18T13:59:36;3.58;;;3.28;;
71759;SDS011;59919;48.112;16.280;2023-09-18T14:02:08;3.72;;;3.40;;
71759;SDS011;59919;48.112;16.280;2023-09-18T14:04:39;4.40;;;3.60;;
71759;SDS011;59919;48.112;16.280;2023-09-18T14:07:10;4.10;;;3.58;;
71759;SDS011;59919;48.112;16.280;2023-09-18T14:09:42;3.83;;;3.45;;
71759;SDS011;59919;48.112;16.280;2023-09-18T14:12:13;4.28;;;3.67;;
71759;SDS011;59919;48.112;16.280;2023-09-18T14:14:46;4.47;;;3.25;;
71759;SDS011;59919;48.112;16.280;2023-09-18T14:17:17;4.90;;;3.42;;
71759;SDS011;59919;48.112;16.280;2023-09-18T14:19:52;4.82;;;3.63;;
71759;SDS011;59919;48.112;16.280;2023-09-18T14:22:26;3.63;;;3.33;;
71759;SDS011;59919;48.112;16.280;2023-09-18T14:24:57;4.35;;;3.42;;
71759;SDS011;59919;48.112;16.280;2023-09-18T14:27:28;4.18;;;3.33;;
71759;SDS011;59919;48.112;16.280;2023-09-18T14:29:59;4.70;;;3.42;;
71759;SDS011;59919;48.112;16.280;2023-09-18T14:32:32;4.20;;;3.65;;
71759;SDS011;59919;48.112;16.280;2023-09-18T14:35:04;4.47;;;3.50;;
71759;SDS011;59919;48.112;16.280;2023-09-18T14:37:38;3.90;;;3.60;;
71759;SDS011;59919;48.112;16.280;2023-09-18T14:40:12;4.20;;;3.63;;
71759;SDS011;59919;48.112;16.280;2023-09-18T14:42:42;3.70;;;3.40;;
71759;SDS011;59919;48.112;16.280;2023-09-18T14:45:13;4.95;;;3.35;;
71759;SDS011;59919;48.112;16.280;2023-09-18T14:47:47;4.05;;;3.65;;
71759;SDS011;59919;48.112;16.280;2023-09-18T14:50:18;4.13;;;3.72;;
71759;SDS011;59919;48.112;16.280;2023-09-18T14:52:49;4.72;;;4.22;;
71759;SDS011;59919;48.112;16.280;2023-09-18T14:55:20;3.53;;;3.20;;
71759;SDS011;59919;48.112;16.280;2023-09-18T14:57:51;4.05;;;3.42;;
71759;SDS011;59919;48.112;16.280;2023-09-18T15:00:22;4.45;;;3.50;;
71759;SDS011;59919;48.112;16.280;2023-09-18T15:02:54;4.82;;;3.78;;
71759;SDS011;59919;48.112;16.280;2023-09-18T15:05:26;3.30;;;3.00;;
71759;SDS011;59919;48.112;16.280;2023-09-18T15:07:57;7.22;;;3.40;;
71759;SDS011;59919;48.112;16.280;2023-09-18T15:10:28;4.35;;;3.45;;
71759;SDS011;59919;48.112;16.280;2023-09-18T15:12:59;4.20;;;3.38;;
71759;SDS011;59919;48.112;16.280;2023-09-18T15:15:30;5.20;;;3.80;;
71759;SDS011;59919;48.112;16.280;2023-09-18T15:18:01;4.15;;;3.63;;
71759;SDS011;59919;48.112;16.280;2023-09-18T15:20:33;4.68;;;3.70;;